Warning: Javascript must be enabled to use all the features on this page!


Page Loading - Please Wait...

Click to hideNews Bulletins

Peak Streamflow for the Nation

USGS 06436000 BELLE FOURCHE R NEAR FRUITDALE,SD

Butte County, South Dakota
Hydrologic Unit Code 10120202
Latitude  44°41'27", Longitude 103°44'14" NAD27
Drainage area 4,500  square miles
Contributing drainage area 4,494  square miles
Gage datum 2,928.09 feet above NAVD88
Output formats
Table
Graph
Tab-separated file
peakfq (watstore) format
Reselect output format
Water
Year
Date Gage
Height
(feet)
Stream-
flow
(cfs)
1946 1946-06-01 9.70 5,7106
1947 1947-06-23 11.03 7,4606
1948 1948-06-18 6.98 2,7206
1949 1949-03-25 6.262 2,2806
1950 1950-05-10 5.362 1,5306
1951 1951-09-07 5.66 1,6806
1952 1952-03-31 6.10 2,2806
1953 1953-08-06 7.83 4,0706
1954 1953-11-26 3.50 1106
1955 1955-04-12 4.44 5976
1956 1955-12-23 4.361 3206
1957 1957-09-01 3.92 1446
1958 1958-06-16 3.93 1836
1959 1958-10-20   13.06
1960 1960-03-24 6.282 2,5306
1961 1961-09-21 3.64 7.006
1962 1962-06-16 11.25 7,8406
1963 1963-04-30 5.72 1,5806
1964 1964-06-09 7.30 3,0306
1965 1965-05-15 10.53 8,1006
1966 1966-03-17 5.652 1,5606
1967 1967-06-17 5.66 1,5606
1968 1968-05-14 3.72 40.06
1969 1969-05-04 7.00 2,3506
1970 1970-05-15 7.57 3,5706
1971 1971-04-22 7.192 2,7706
1972 1972-06-19 9.42 6,2706
1973 1973-04-21 7.23 3,1106
1974 1974-04-14 5.11 1,2106
1975 1975-05-12 6.39 2,1906
1976 1976-06-15 13.18 12,2006
1977 1977-04-10 2.83 74.06
1978 1978-05-08 9.03 3,7806
1979 1979-05-10 3.66 2486
1980 1980-06-15 4.75 6346
1981 1981-07-26 6.40 1,4606
1982 1982-05-20 14.32 12,7006
1983 1982-10-10 6.18 9786
1984 1984-06-20 9.73 4,3306
1985 1985-08-06 3.29 23.06
1986 1986-05-10 5.51 8106
1987 1987-04-09 5.59 8626
1988 1987-11-16 3.64 1916
1989 1989-07-20 2.48 30.06
1990 1990-05-26 6.17 1,2806
1991 1990-10-31 4.45 4706
1992 1992-07-13 2.28 22.06
1993 1993-06-30 9.72 3,8906
1994 1994-05-01 6.182 1,2406
1995 1995-05-10 14.09 12,2006
1996 1996-03-15 10.10 5,1806
1997 1997-03-22 7.822 2,6006
1998 1998-06-19 7.40 2,2006
1999 1998-10-17 8.76 3,5206
2000 2000-04-25 4.81 6666
2001 2001-04-07 6.84 1,8406
2002 2002-04-19 2.96 1446
2003 2003-03-17 5.23 8076
2004 2004-07-07 3.31 2126
2005 2004-12-21 3.26 2016
2006 2006-04-21 4.38 4966
2007 2007-06-02 6.70 1,3106
2008 2008-06-06 12.95 8,7006
2009 2009-04-14 10.26 4,0906
2010 2010-05-11 8.73 2,6306
2011 2011-05-24 13.84 10,4006
2012 2012-03-18 3.922 4116
2013 2013-06-02 10.40 4,2906
2014 2013-10-11 7.842 2,1006
2015 2015-06-21 9.31 3,2306
2016 2016-08-07 3.922 4266
2017 2016-10-06 1.931 34.06
2018 2018-06-30 8.19 2,3106
2019 2019-05-22 12.20 7,0006
2020 2020-05-17 6.55 1,5606
2021 2021-02-06 3.042 2326
?
  Peak Gage-Height Qualification Codes.
?
  Peak Streamflow Qualification Codes.